Time;durP1;ratioP1;P1;durP2;ratioP2;P2;SDS_P1;SDS_P2;PMS_P1;PMS_P2;Temp;Humidity;BMP_temperature;BMP_pressure;BME280_temperature;BME280_humidity;BME280_pressure;Samples;Min_cycle;Max_cycle;Signal;HPM_P1;HPM_P2
2022/06/01 00:00:44;;;;;;;4.32;1.60;;;;;;;10.77;76.44;100493.97;4992856;28;20037;-76
2022/06/01 00:03:48;;;;;;;2.65;1.50;;;;;;;10.90;75.97;100495.00;4992981;28;20566;-76
2022/06/01 00:06:52;;;;;;;3.92;1.67;;;;;;;11.19;75.03;100492.56;4993037;28;20153;-76
2022/06/01 00:09:55;;;;;;;3.03;1.65;;;;;;;11.07;75.56;100498.47;4992847;28;20049;-76
2022/06/01 00:12:59;;;;;;;3.78;1.70;;;;;;;11.12;75.58;100496.47;4992865;28;20053;-76
2022/06/01 00:16:03;;;;;;;4.47;1.58;;;;;;;11.23;74.89;100494.09;4992877;28;20069;-76
2022/06/01 00:19:07;;;;;;;3.58;1.60;;;;;;;11.14;76.11;100494.59;4992958;28;20398;-76
2022/06/01 00:22:17;;;;;;;4.75;1.67;;;;;;;11.21;75.66;100498.56;4993020;28;20509;-76
2022/06/01 00:25:20;;;;;;;5.78;2.85;;;;;;;11.31;75.17;100493.66;4992094;28;20198;-76
2022/06/01 00:28:24;;;;;;;4.78;1.75;;;;;;;11.27;75.45;100485.16;4992817;28;20041;-76
2022/06/01 00:31:27;;;;;;;3.58;1.65;;;;;;;11.07;76.19;100501.09;4992768;28;20745;-76
2022/06/01 00:34:31;;;;;;;5.28;1.70;;;;;;;11.24;75.57;100495.78;4992546;28;20081;-76
2022/06/01 00:37:34;;;;;;;4.45;2.47;;;;;;;11.38;74.87;100493.22;4994679;28;20065;-76
2022/06/01 00:40:37;;;;;;;;;;;;;;;11.16;76.29;100498.81;4985178;28;20097;-76
2022/06/01 00:43:44;;;;;;;2.95;1.90;;;;;;;11.29;76.08;100478.03;4984485;28;19924;-76
2022/06/01 00:46:47;;;;;;;5.00;1.75;;;;;;;11.22;76.28;100487.16;4996279;28;20177;-76
2022/06/01 00:49:53;;;;;;;2.72;1.52;;;;;;;11.25;75.88;100483.53;4996491;28;20046;-76
2022/06/01 00:53:02;;;;;;;4.03;1.75;;;;;;;11.38;75.22;100493.22;4996578;28;20053;-76
2022/06/01 00:56:10;;;;;;;3.10;1.73;;;;;;;11.39;75.56;100492.31;4996464;28;20100;-76
2022/06/01 00:59:17;;;;;;;4.25;1.60;;;;;;;11.52;75.40;100500.31;4996419;28;20569;-76
2022/06/01 01:02:20;;;;;;;3.00;1.70;;;;;;;11.56;75.17;100495.75;4996140;28;20565;-76
2022/06/01 01:05:25;;;;;;;3.30;2.10;;;;;;;11.43;74.86;100490.38;4996334;28;20099;-76
2022/06/01 01:08:28;;;;;;;3.88;1.92;;;;;;;11.38;74.96;100490.59;4996208;28;20041;-76
2022/06/01 01:11:36;;;;;;;3.28;1.75;;;;;;;11.49;75.16;100490.03;4995890;28;20101;-76
2022/06/01 01:14:43;;;;;;;4.40;1.60;;;;;;;11.49;75.01;100486.56;4996012;28;20104;-76
2022/06/01 01:17:49;;;;;;;6.28;2.28;;;;;;;11.25;76.31;100471.28;4995899;28;20044;-76
2022/06/01 01:21:17;;;;;;;3.33;1.75;;;;;;;11.07;77.45;100477.53;4996201;28;20422;-76
2022/06/01 01:24:45;;;;;;;3.50;1.90;;;;;;;11.35;76.57;100493.41;4983948;28;20053;-76
2022/06/01 01:27:51;;;;;;;3.80;2.10;;;;;;;11.30;76.29;100497.22;4995838;28;20057;-76
2022/06/01 01:31:02;;;;;;;3.47;1.60;;;;;;;11.33;76.14;100497.91;4995636;28;20069;-76
2022/06/01 01:34:07;;;;;;;2.78;1.38;;;;;;;11.27;76.46;100495.63;4995807;28;20125;-76
2022/06/01 01:37:17;;;;;;;3.83;1.83;;;;;;;11.17;76.89;100486.59;4995747;28;20246;-76
2022/06/01 01:40:25;;;;;;;6.00;1.60;;;;;;;11.36;76.43;100489.88;4995597;28;20064;-76
2022/06/01 01:43:31;;;;;;;6.85;1.85;;;;;;;11.43;75.35;100484.28;4995219;28;20144;-76
2022/06/01 01:46:35;;;;;;;3.45;1.88;;;;;;;11.03;77.60;100492.56;4995389;28;20049;-76
2022/06/01 01:49:40;;;;;;;4.75;2.22;;;;;;;11.08;77.77;100489.72;4995474;28;20052;-76
2022/06/01 01:52:44;;;;;;;4.13;1.85;;;;;;;10.97;78.48;100518.22;4995410;28;20413;-76
2022/06/01 01:55:54;;;;;;;3.03;1.88;;;;;;;11.02;78.41;100534.53;4995499;28;20131;-76
2022/06/01 01:59:21;;;;;;;5.13;1.90;;;;;;;10.96;78.54;100530.47;4995390;28;20133;-76
2022/06/01 02:02:50;;;;;;;4.95;1.85;;;;;;;11.14;78.41;100489.38;4995261;28;20076;-76
2022/06/01 02:06:09;;;;;;;7.07;1.80;;;;;;;11.00;79.05;100518.06;4994958;28;20126;-76
2022/06/01 02:09:13;;;;;;;6.38;2.10;;;;;;;10.89;79.57;100506.41;4995507;28;20085;-76
2022/06/01 02:15:42;;;;;;;2.72;1.75;;;;;;;11.14;77.88;100489.38;4995136;28;20045;-76
2022/06/01 02:18:50;;;;;;;3.17;2.28;;;;;;;10.85;78.87;100494.44;4994591;28;20050;-76
2022/06/01 02:21:54;;;;;;;3.40;1.83;;;;;;;10.75;79.37;100487.97;4994817;28;20041;-76
2022/06/01 02:24:58;;;;;;;2.85;1.65;;;;;;;10.82;78.62;100489.34;4994903;28;20104;-76
2022/06/01 02:28:01;;;;;;;;;;;;;;;10.76;77.84;100479.22;4995257;28;20405;-76
2022/06/01 02:31:04;;;;;;;2.55;1.52;;;;;;;10.68;77.80;100490.06;4994748;28;19941;-76
2022/06/01 02:34:09;;;;;;;3.17;1.60;;;;;;;10.49;77.98;100481.50;4995259;28;20130;-76
2022/06/01 02:37:14;;;;;;;3.58;1.70;;;;;;;10.38;78.19;100479.47;4994494;28;20053;-76
2022/06/01 02:40:22;;;;;;;3.47;1.77;;;;;;;10.45;77.87;100480.00;4995626;28;20057;-76
2022/06/01 02:43:26;;;;;;;2.28;1.38;;;;;;;10.58;77.43;100485.44;4997187;28;20048;-75
2022/06/01 02:46:31;;;;;;;4.22;1.75;;;;;;;10.60;77.13;100473.97;4994531;28;20116;-75
2022/06/01 02:49:34;;;;;;;5.85;1.50;;;;;;;10.61;76.90;100474.81;4993845;28;20057;-76
2022/06/01 02:52:38;;;;;;;3.10;2.13;;;;;;;10.39;76.81;100455.00;4994401;28;20104;-76
2022/06/01 02:55:41;;;;;;;5.57;1.90;;;;;;;9.96;78.20;100461.59;4994165;28;20046;-76
2022/06/01 02:58:45;;;;;;;4.88;1.50;;;;;;;10.10;78.31;100466.13;4993536;28;20053;-76
2022/06/01 03:01:48;;;;;;;4.90;1.92;;;;;;;10.05;78.46;100460.25;4994212;28;20037;-76
2022/06/01 03:04:52;;;;;;;3.47;1.75;;;;;;;10.09;77.91;100462.66;4994102;28;20045;-76
2022/06/01 03:07:55;;;;;;;2.85;1.60;;;;;;;10.19;77.24;100468.25;4993740;28;20041;-76
2022/06/01 03:10:59;;;;;;;3.13;1.65;;;;;;;10.13;76.61;100463.34;4993890;28;20049;-76
2022/06/01 03:14:03;;;;;;;3.65;1.90;;;;;;;10.25;76.12;100467.94;4993846;28;20068;-76
2022/06/01 03:17:07;;;;;;;5.82;1.98;;;;;;;9.95;78.23;100467.72;4993848;28;20049;-76
2022/06/01 03:20:13;;;;;;;5.28;2.85;;;;;;;10.25;77.12;100465.31;4993952;28;20401;-76
2022/06/01 03:23:19;;;;;;;3.85;2.30;;;;;;;9.98;77.81;100475.41;4993630;28;20053;-76
2022/06/01 03:26:23;;;;;;;5.18;2.00;;;;;;;9.75;78.91;100473.94;4993717;28;20049;-76
2022/06/01 03:29:26;;;;;;;7.78;2.22;;;;;;;9.93;78.02;100480.88;4981600;28;20053;-76
2022/06/01 03:32:29;;;;;;;;;;;;;;;9.96;78.16;100478.13;4993956;28;20046;-76
2022/06/01 03:35:33;;;;;;;3.35;1.67;;;;;;;10.18;77.51;100480.47;4993419;28;20427;-76
2022/06/01 03:38:37;;;;;;;4.55;2.00;;;;;;;10.32;77.26;100485.03;4993335;28;20056;-76
2022/06/01 03:41:40;;;;;;;3.05;1.60;;;;;;;10.32;76.62;100482.41;4993310;28;20042;-76
2022/06/01 03:48:08;;;;;;;10.32;2.42;;;;;;;9.83;78.71;100482.25;4993644;28;20049;-76
2022/06/01 03:51:12;;;;;;;4.25;2.10;;;;;;;9.96;78.78;100493.78;4994119;28;20044;-76
2022/06/01 03:54:15;;;;;;;6.53;1.95;;;;;;;10.28;77.86;100493.94;4996671;28;20508;-76
2022/06/01 03:57:18;;;;;;;5.45;1.95;;;;;;;10.27;77.70;100499.25;4993992;28;20451;-76
2022/06/01 04:00:25;;;;;;;2.78;1.85;;;;;;;10.02;78.93;100509.16;4994290;28;20077;-75
2022/06/01 04:03:29;;;;;;;4.35;2.10;;;;;;;9.92;79.53;100512.28;4982648;28;20080;-75
2022/06/01 04:06:33;;;;;;;3.60;1.92;;;;;;;10.09;78.92;100514.06;4993274;28;20049;-76
2022/06/01 04:09:36;;;;;;;3.85;2.17;;;;;;;10.22;78.28;100515.13;4993184;28;20049;-76
2022/06/01 04:12:41;;;;;;;3.30;2.25;;;;;;;9.97;79.33;100518.97;4992896;28;20414;-76
2022/06/01 04:15:44;;;;;;;3.75;1.83;;;;;;;9.96;79.80;100525.13;4992861;28;20049;-76
2022/06/01 04:18:48;;;;;;;6.07;1.92;;;;;;;9.96;80.13;100522.50;4993698;28;20162;-76
2022/06/01 04:21:53;;;;;;;4.60;2.30;;;;;;;10.04;79.95;100526.50;4992717;28;20057;-76
2022/06/01 04:24:57;;;;;;;6.28;2.20;;;;;;;10.02;79.80;100522.22;4992786;28;20085;-76
2022/06/01 04:28:01;;;;;;;;;;;;;;;9.98;80.40;100528.50;4993277;28;20132;-76
2022/06/01 04:31:04;;;;;;;;;;;;;;;10.08;80.16;100522.81;4993225;28;20013;-76
2022/06/01 04:34:08;;;;;;;5.88;1.77;;;;;;;10.11;79.89;100525.28;4992694;28;19964;-76
2022/06/01 04:37:12;;;;;;;4.43;2.00;;;;;;;10.03;80.30;100520.44;4992889;28;20057;-76
2022/06/01 04:40:17;;;;;;;4.00;2.20;;;;;;;10.14;79.88;100517.28;4992603;28;20041;-76
2022/06/01 04:43:22;;;;;;;6.40;2.45;;;;;;;10.13;80.24;100520.81;4992920;28;20421;-76
2022/06/01 04:46:25;;;;;;;3.92;2.17;;;;;;;10.11;80.56;100530.50;4991873;28;20184;-76
2022/06/01 04:49:28;;;;;;;3.55;1.80;;;;;;;10.18;80.34;100524.06;4992466;28;20089;-76
2022/06/01 04:52:32;;;;;;;4.82;2.05;;;;;;;10.27;79.84;100526.22;4980682;28;20057;-76
2022/06/01 04:55:35;;;;;;;;;;;;;;;10.52;79.03;100532.81;4993256;28;20092;-77
2022/06/01 04:58:39;;;;;;;2.90;1.80;;;;;;;10.53;78.63;100518.78;4992808;28;19936;-78
2022/06/01 05:01:44;;;;;;;3.20;2.08;;;;;;;10.73;77.95;100523.84;4992647;28;20178;-78
2022/06/01 05:04:48;;;;;;;3.25;1.60;;;;;;;10.88;77.08;100530.88;4992115;28;20065;-78
2022/06/01 05:07:51;;;;;;;4.30;1.60;;;;;;;10.97;76.75;100523.44;4992153;28;20073;-78
2022/06/01 05:10:54;;;;;;;;;;;;;;;10.92;76.90;100534.19;4993028;28;20509;-77
2022/06/01 05:13:59;;;;;;;3.45;1.95;;;;;;;10.79;77.23;100535.75;4992464;28;19920;-78
2022/06/01 05:17:02;;;;;;;2.90;1.80;;;;;;;10.41;78.87;100528.97;4992367;28;20045;-78
2022/06/01 05:20:07;;;;;;;4.13;2.35;;;;;;;10.54;78.30;100520.50;4992450;28;20049;-78
2022/06/01 05:23:11;;;;;;;3.47;2.00;;;;;;;10.54;79.01;100520.50;4993667;28;20077;-78
2022/06/01 05:26:14;;;;;;;3.85;2.10;;;;;;;10.64;78.63;100519.09;4996255;28;20048;-78
2022/06/01 05:29:18;;;;;;;4.55;1.80;;;;;;;10.92;77.48;100532.41;4996235;28;20101;-78
2022/06/01 05:32:22;;;;;;;2.70;1.60;;;;;;;11.13;76.68;100524.31;4995689;28;20140;-78
2022/06/01 05:35:25;;;;;;;5.45;2.67;;;;;;;10.84;78.17;100524.09;4995369;28;20112;-78
2022/06/01 05:38:29;;;;;;;3.58;2.00;;;;;;;11.05;76.97;100521.28;4995414;28;20105;-78
2022/06/01 05:41:33;;;;;;;5.30;2.00;;;;;;;11.26;75.85;100516.63;4995611;28;20037;-78
2022/06/01 05:44:37;;;;;;;4.90;1.77;;;;;;;10.93;77.25;100528.84;4995653;28;20045;-78
2022/06/01 05:47:41;;;;;;;5.40;2.35;;;;;;;10.98;77.07;100525.16;4995473;28;20052;-78
2022/06/01 05:50:44;;;;;;;;;;;;;;;11.10;77.78;100524.47;4995866;28;20054;-78
2022/06/01 05:53:48;;;;;;;6.25;1.75;;;;;;;11.06;79.60;100528.19;4995779;28;20376;-78
2022/06/01 05:56:52;;;;;;;5.22;2.10;;;;;;;11.12;79.34;100520.00;4995612;28;20068;-78
2022/06/01 05:59:55;;;;;;;;;;;;;;;11.16;78.67;100526.75;4995877;28;20093;-78
2022/06/01 06:02:58;;;;;;;4.55;2.42;;;;;;;11.32;78.25;100524.97;4994412;28;20038;-78
2022/06/01 06:06:12;;;;;;;3.72;1.83;;;;;;;11.35;78.51;100532.66;4995143;28;20050;-78
2022/06/01 06:09:15;;;;;;;4.72;2.17;;;;;;;11.49;77.93;100531.91;4995399;28;20050;-78
2022/06/01 06:12:19;;;;;;;4.90;2.03;;;;;;;11.64;76.78;100538.06;4995054;28;20053;-78
2022/06/01 06:15:22;;;;;;;3.47;1.92;;;;;;;11.80;77.02;100531.00;4995145;28;20560;-78
2022/06/01 06:18:25;;;;;;;3.13;1.88;;;;;;;11.85;76.65;100539.50;4994921;28;20045;-78
2022/06/01 06:21:30;;;;;;;3.67;1.88;;;;;;;11.98;77.11;100538.78;4994907;28;20041;-78
2022/06/01 06:24:34;;;;;;;9.00;2.17;;;;;;;11.99;77.22;100532.59;4994928;28;20092;-78
2022/06/01 06:27:38;;;;;;;3.55;1.60;;;;;;;12.12;75.89;100533.56;4994847;28;20061;-77
2022/06/01 06:30:42;;;;;;;2.63;1.23;;;;;;;12.20;74.95;100539.22;4994582;28;20045;-77
2022/06/01 06:33:47;;;;;;;6.10;1.40;;;;;;;12.33;74.15;100534.09;4994597;28;20715;-77
2022/06/01 06:36:53;;;;;;;2.78;1.17;;;;;;;12.46;69.21;100536.84;4994483;28;20081;-77
2022/06/01 06:39:57;;;;;;;6.78;1.40;;;;;;;12.63;70.02;100534.03;4994522;28;20042;-77
2022/06/01 06:43:00;;;;;;;6.15;1.27;;;;;;;12.74;66.98;100541.25;4994864;28;20065;-77
2022/06/01 06:46:10;;;;;;;4.43;1.17;;;;;;;12.83;66.52;100543.31;4982170;28;20045;-77
2022/06/01 06:49:13;;;;;;;5.15;1.00;;;;;;;12.98;65.22;100546.75;4994300;28;20180;-77
2022/06/01 06:52:17;;;;;;;3.20;0.95;;;;;;;12.96;64.80;100544.25;4994182;28;20053;-76
2022/06/01 06:55:20;;;;;;;2.20;0.85;;;;;;;12.93;64.95;100543.59;4994497;28;20181;-77
2022/06/01 06:58:24;;;;;;;2.35;1.00;;;;;;;13.01;63.82;100542.16;4994308;28;20065;-77
2022/06/01 07:01:28;;;;;;;5.45;1.00;;;;;;;13.12;63.26;100533.66;4994062;28;20559;-76
2022/06/01 07:04:32;;;;;;;3.97;1.15;;;;;;;13.18;62.06;100532.41;4994010;28;20049;-77
2022/06/01 07:07:35;;;;;;;4.15;0.82;;;;;;;13.24;61.86;100532.91;4993955;28;20073;-76
2022/06/01 07:10:39;;;;;;;2.15;0.93;;;;;;;13.25;60.92;100531.97;4993736;28;20085;-76
2022/06/01 07:13:43;;;;;;;3.28;0.93;;;;;;;13.42;61.41;100525.63;4993649;28;20050;-77
2022/06/01 07:16:46;;;;;;;3.70;0.93;;;;;;;13.47;59.66;100527.97;4993987;28;20069;-76
2022/06/01 07:19:53;;;;;;;5.28;1.40;;;;;;;13.60;59.02;100523.59;4993555;28;20080;-76
2022/06/01 07:22:56;;;;;;;2.53;0.70;;;;;;;13.64;58.85;100526.88;4993716;28;20044;-76
2022/06/01 07:26:01;;;;;;;1.77;0.60;;;;;;;13.72;56.94;100522.81;4994688;28;20116;-76
2022/06/01 07:29:05;;;;;;;3.03;0.82;;;;;;;13.62;55.41;100523.50;4994398;28;20057;-77
2022/06/01 07:32:09;;;;;;;4.50;1.10;;;;;;;13.73;57.07;100524.50;4993596;28;20105;-77
2022/06/01 07:35:13;;;;;;;2.83;1.05;;;;;;;13.80;55.47;100517.03;4993270;28;20100;-77
2022/06/01 07:45:00;;;;;;;3.05;0.60;;;;;;;14.01;53.12;100512.16;4992984;28;20096;-76
2022/06/01 07:48:07;;;;;;;3.05;0.85;;;;;;;14.06;52.23;100515.31;4993342;28;20073;-75
2022/06/01 07:51:10;;;;;;;2.22;0.57;;;;;;;14.13;52.23;100510.47;4993189;28;20093;-76
2022/06/01 07:54:14;;;;;;;4.57;0.65;;;;;;;14.09;52.60;100504.59;4993334;28;20441;-76
2022/06/01 07:57:17;;;;;;;2.58;0.90;;;;;;;14.33;53.10;100506.53;4993158;28;20406;-75
2022/06/01 08:00:22;;;;;;;3.40;0.85;;;;;;;14.37;53.06;100500.94;4993124;28;20088;-74
2022/06/01 08:03:25;;;;;;;2.88;0.90;;;;;;;14.46;53.54;100496.84;4993021;28;20056;-75
2022/06/01 08:06:30;;;;;;;3.25;0.60;;;;;;;14.44;51.97;100509.25;4993075;28;20048;-76
2022/06/01 08:09:38;;;;;;;2.75;0.63;;;;;;;14.51;51.35;100509.69;4992992;28;20109;-75
2022/06/01 08:16:03;;;;;;;3.72;0.93;;;;;;;14.70;50.55;100509.25;4992875;28;20513;-76
2022/06/01 08:19:08;;;;;;;3.50;0.98;;;;;;;14.79;48.82;100513.88;4992791;28;20045;-75
2022/06/01 08:22:12;;;;;;;1.67;0.50;;;;;;;14.67;49.17;100510.31;4992840;28;20041;-76
2022/06/01 08:25:16;;;;;;;2.35;0.60;;;;;;;14.80;48.08;100505.03;4993218;28;20471;-76
2022/06/01 08:28:21;;;;;;;3.05;0.40;;;;;;;14.76;48.09;100504.41;4992915;28;20049;-76
2022/06/01 08:31:31;;;;;;;2.65;0.70;;;;;;;14.88;46.72;100513.25;4992671;28;20049;-76
2022/06/01 08:34:35;;;;;;;2.65;0.50;;;;;;;14.96;47.17;100508.25;4999831;28;20073;-77
2022/06/01 08:37:38;;;;;;;1.85;0.50;;;;;;;14.98;46.83;100510.81;5012332;28;20049;-77
2022/06/01 08:40:50;;;;;;;2.65;0.73;;;;;;;15.28;47.20;100526.19;5012112;28;20044;-76
2022/06/01 08:43:57;;;;;;;3.25;0.60;;;;;;;15.35;44.70;100519.56;5012971;28;20045;-76
2022/06/01 08:47:10;;;;;;;1.42;0.47;;;;;;;15.26;44.52;100517.56;4995413;28;20049;-75
2022/06/01 08:50:30;;;;;;;3.33;0.50;;;;;;;15.45;47.17;100517.09;4996719;28;20568;-76
2022/06/01 08:53:35;;;;;;;2.45;0.60;;;;;;;15.36;44.68;100518.59;4992695;28;20119;-76
2022/06/01 08:56:43;;;;;;;2.88;0.70;;;;;;;15.35;45.08;100512.47;4990223;28;20124;-76
2022/06/01 09:00:12;;;;;;;1.52;0.40;;;;;;;15.39;43.39;100521.00;4996283;28;20053;-76
2022/06/01 09:03:21;;;;;;;1.85;0.45;;;;;;;15.38;43.72;100523.72;4996491;28;20092;-76
2022/06/01 09:06:32;;;;;;;1.45;0.47;;;;;;;15.44;45.39;100525.94;5002545;28;20080;-75
2022/06/01 09:10:04;;;;;;;2.45;0.40;;;;;;;15.44;44.59;100526.75;5015786;28;20107;-75
2022/06/01 09:13:23;;;;;;;1.15;0.40;;;;;;;15.55;44.04;100518.94;5016079;28;20508;-75
2022/06/01 09:16:37;;;;;;;2.53;0.70;;;;;;;15.53;43.02;100518.19;5015955;28;20056;-75
2022/06/01 09:23:09;;;;;;;4.35;0.93;;;;;;;15.58;44.45;100521.34;5015779;28;20045;-75
2022/06/01 09:26:25;;;;;;;3.05;0.52;;;;;;;15.92;44.75;100518.91;5015332;28;20126;-75
2022/06/01 09:29:32;;;;;;;2.10;0.68;;;;;;;16.04;44.45;100528.50;5014616;28;20108;-75
2022/06/01 09:32:41;;;;;;;4.38;0.60;;;;;;;16.31;44.82;100535.31;5015483;28;20092;-75
2022/06/01 09:35:58;;;;;;;2.67;0.70;;;;;;;16.12;44.99;100532.38;5015108;28;20069;-75
2022/06/01 09:39:03;;;;;;;3.97;0.80;;;;;;;16.25;46.49;100533.13;5015110;28;20053;-76
2022/06/01 09:42:39;;;;;;;1.98;0.55;;;;;;;16.37;44.91;100541.88;5015172;28;20402;-75
2022/06/01 09:45:53;;;;;;;2.55;0.63;;;;;;;16.39;45.51;100553.19;5015172;28;20559;-76
2022/06/01 09:48:57;;;;;;;1.30;0.40;;;;;;;16.27;42.60;100537.34;5002960;28;20048;-76
2022/06/01 09:52:06;;;;;;;2.38;0.50;;;;;;;16.31;45.50;100537.94;5015130;28;20109;-75
2022/06/01 09:55:20;;;;;;;2.20;0.50;;;;;;;16.20;45.45;100540.53;5014851;28;20165;-75
2022/06/01 10:08:59;;;;;;;1.88;0.40;;;;;;;16.45;42.56;100539.50;5008230;28;20045;-74
2022/06/01 10:12:28;;;;;;;3.90;0.75;;;;;;;16.68;42.44;100545.66;5016788;28;20071;-75
2022/06/01 10:15:38;;;;;;;2.67;0.65;;;;;;;16.80;42.48;100526.25;5016297;28;20048;-75
2022/06/01 10:18:44;;;;;;;4.80;0.50;;;;;;;16.89;42.62;100530.81;5015411;28;20053;-76
2022/06/01 10:22:41;;;;;;;4.10;0.50;;;;;;;16.94;41.16;100531.31;5016197;28;20053;-75
2022/06/01 10:25:51;;;;;;;1.77;0.60;;;;;;;16.89;41.54;100533.47;4964468;28;20049;-75
2022/06/01 10:29:03;;;;;;;2.75;0.80;;;;;;;16.99;42.26;100538.03;5014819;28;20544;-76
2022/06/01 10:32:12;;;;;;;1.30;0.47;;;;;;;17.06;42.08;100533.94;5014974;28;20044;-76
2022/06/01 10:35:30;;;;;;;1.88;0.50;;;;;;;17.06;41.12;100512.78;5014073;28;20253;-75
2022/06/01 10:38:55;;;;;;;1.70;0.43;;;;;;;17.01;40.10;100517.63;5013941;28;20548;-76
2022/06/01 10:42:11;;;;;;;2.15;0.30;;;;;;;17.33;41.11;100510.59;5014042;28;20054;-75
2022/06/01 10:45:15;;;;;;;1.35;0.57;;;;;;;17.55;41.77;100508.81;5002407;28;20053;-76
2022/06/01 10:48:22;;;;;;;1.33;0.35;;;;;;;17.21;40.20;100511.56;5013603;28;20076;-75
2022/06/01 10:51:34;;;;;;;2.63;0.55;;;;;;;17.04;40.45;100505.00;5001584;28;20180;-75
2022/06/01 10:54:49;;;;;;;3.30;0.70;;;;;;;17.17;40.49;100510.16;5014160;28;20057;-76
2022/06/01 10:57:57;;;;;;;2.28;0.47;;;;;;;17.32;40.25;100508.91;5013671;28;20044;-76
2022/06/01 11:01:28;;;;;;;1.95;0.40;;;;;;;17.67;39.58;100507.81;5013746;28;20180;-76
2022/06/01 11:04:50;;;;;;;1.92;0.30;;;;;;;17.85;36.88;100503.69;5013938;28;20056;-75
2022/06/01 11:08:22;;;;;;;1.60;0.38;;;;;;;17.84;38.01;100488.81;5013419;28;20044;-75
2022/06/01 11:11:50;;;;;;;2.13;0.35;;;;;;;17.77;38.37;100494.72;5000847;28;20045;-75
2022/06/01 11:15:23;;;;;;;1.92;0.30;;;;;;;17.41;40.23;100492.28;5013295;28;20049;-75
2022/06/01 11:18:46;;;;;;;4.18;0.45;;;;;;;17.32;41.24;100492.19;4994313;28;20132;-75
2022/06/01 11:21:56;;;;;;;2.35;0.30;;;;;;;17.52;40.51;100483.50;5011842;28;20045;-76
2022/06/01 11:25:26;;;;;;;3.35;0.82;;;;;;;17.66;39.34;100480.53;5013087;28;20057;-76
2022/06/01 11:28:30;;;;;;;1.42;0.47;;;;;;;17.67;39.42;100473.44;5013353;28;20045;-76
2022/06/01 11:31:36;;;;;;;0.93;0.20;;;;;;;17.93;38.86;100481.88;5013250;28;20084;-75
2022/06/01 11:35:03;;;;;;;1.63;0.30;;;;;;;17.89;38.04;100472.53;5012931;28;20430;-76
2022/06/01 11:38:21;;;;;;;2.42;0.40;;;;;;;18.01;36.39;100474.16;5013076;28;20596;-75
2022/06/01 11:41:29;;;;;;;1.13;0.20;;;;;;;18.09;36.89;100470.84;5013137;28;20084;-75
2022/06/01 11:44:36;;;;;;;2.45;0.45;;;;;;;18.15;35.87;100470.34;5013077;28;20056;-76
2022/06/01 11:47:51;;;;;;;1.80;0.40;;;;;;;18.67;35.39;100460.56;5013001;28;20071;-75
2022/06/01 11:51:15;;;;;;;1.00;0.20;;;;;;;18.48;34.49;100461.31;5012694;28;20099;-76
2022/06/01 11:54:35;;;;;;;1.63;0.28;;;;;;;18.68;35.49;100467.53;5012631;28;20084;-76
2022/06/01 11:57:49;;;;;;;1.88;0.40;;;;;;;18.77;34.48;100469.41;5012919;28;20116;-75
2022/06/01 12:01:09;;;;;;;1.88;0.40;;;;;;;18.76;34.09;100469.53;5000798;28;20504;-75
2022/06/01 12:04:20;;;;;;;2.70;0.47;;;;;;;19.12;36.31;100467.28;5012660;28;20056;-76
2022/06/01 12:07:34;;;;;;;1.05;0.30;;;;;;;19.20;34.91;100462.13;5004146;28;20097;-75
2022/06/01 12:10:58;;;;;;;1.35;0.35;;;;;;;19.47;35.98;100461.47;4992861;28;20406;-75
2022/06/01 12:14:02;;;;;;;2.15;0.40;;;;;;;19.27;35.16;100457.94;4992832;28;20116;-75
2022/06/01 12:17:18;;;;;;;1.33;0.30;;;;;;;19.05;34.90;100453.75;4987811;28;20045;-75
2022/06/01 12:20:33;;;;;;;4.63;0.43;;;;;;;19.08;36.05;100461.41;4992771;28;20053;-75
2022/06/01 12:30:48;;;;;;;2.35;0.50;;;;;;;18.81;36.06;100464.69;4992947;28;20085;-75
2022/06/01 12:34:01;;;;;;;1.13;0.40;;;;;;;18.82;34.77;100458.41;4995466;28;20058;-76
2022/06/01 12:37:06;;;;;;;1.65;0.40;;;;;;;19.36;34.58;100449.16;4999343;28;20104;-76
2022/06/01 12:40:15;;;;;;;1.55;0.40;;;;;;;19.95;33.58;100452.66;4999515;28;20049;-76
2022/06/01 12:43:19;;;;;;;2.40;0.40;;;;;;;20.09;33.27;100452.19;4999200;28;20100;-75
2022/06/01 12:46:29;;;;;;;1.98;0.40;;;;;;;20.54;33.65;100451.50;4999312;28;20093;-76
2022/06/01 12:49:38;;;;;;;1.83;0.30;;;;;;;20.54;32.08;100448.84;4998986;28;20119;-75
2022/06/01 12:52:43;;;;;;;1.92;0.40;;;;;;;20.19;33.94;100458.31;4998287;28;20038;-75
2022/06/01 12:55:47;;;;;;;2.03;0.40;;;;;;;20.13;32.60;100455.41;4999245;28;20044;-75
2022/06/01 12:58:53;;;;;;;1.83;0.40;;;;;;;21.25;30.96;100442.88;4999118;28;20045;-76
2022/06/01 13:02:04;;;;;;;2.08;0.47;;;;;;;20.82;31.36;100455.03;4999118;28;20104;-76
2022/06/01 13:05:12;;;;;;;2.53;0.60;;;;;;;20.85;30.02;100451.25;4999038;28;20177;-75
2022/06/01 13:08:25;;;;;;;1.45;0.30;;;;;;;21.32;30.35;100448.44;4999119;28;20065;-75
2022/06/01 13:11:31;;;;;;;1.30;0.40;;;;;;;21.31;29.55;100441.41;4998010;28;20585;-76
2022/06/01 13:14:36;;;;;;;1.75;0.40;;;;;;;21.77;29.64;100443.03;4987167;28;20194;-76
2022/06/01 13:17:49;;;;;;;2.00;0.40;;;;;;;20.42;32.48;100456.16;4998026;28;20190;-75
2022/06/01 13:21:00;;;;;;;1.80;0.47;;;;;;;20.16;32.90;100455.94;4978445;28;20050;-76
2022/06/01 13:24:08;;;;;;;2.13;0.50;;;;;;;21.16;31.18;100456.25;4967257;28;20069;-76
2022/06/01 13:27:12;;;;;;;1.63;0.45;;;;;;;20.45;32.55;100444.38;4979265;28;20054;-76
2022/06/01 13:30:16;;;;;;;2.47;0.50;;;;;;;20.16;33.67;100455.94;4998842;28;20468;-76
2022/06/01 13:33:30;;;;;;;2.70;0.57;;;;;;;20.33;34.43;100454.38;5018340;28;20041;-76
2022/06/01 13:36:40;;;;;;;4.15;0.63;;;;;;;21.28;32.08;100453.22;4986237;28;20061;-76
2022/06/01 13:40:05;;;;;;;3.33;0.40;;;;;;;21.44;31.89;100449.03;4998911;28;20502;-76
2022/06/01 13:43:12;;;;;;;3.58;0.40;;;;;;;21.85;31.41;100439.56;4997603;28;20061;-76
2022/06/01 13:46:27;;;;;;;1.30;0.45;;;;;;;21.81;30.67;100451.53;4995585;28;20108;-77
2022/06/01 13:49:31;;;;;;;3.03;0.52;;;;;;;21.75;31.04;100455.63;4995600;28;20084;-76
2022/06/01 13:52:34;;;;;;;2.03;0.50;;;;;;;22.94;29.71;100447.88;4995647;28;20046;-76
2022/06/01 13:55:58;;;;;;;4.10;0.60;;;;;;;20.43;33.41;100446.38;4995738;28;20053;-76
2022/06/01 13:59:32;;;;;;;1.77;0.55;;;;;;;20.65;33.94;100461.97;4995477;28;20044;-76
2022/06/01 14:02:52;;;;;;;3.50;0.68;;;;;;;22.21;31.32;100452.84;4995178;28;20041;-76
2022/06/01 14:05:55;;;;;;;1.90;0.47;;;;;;;20.83;33.37;100458.50;4983082;28;20101;-77
2022/06/01 14:09:00;;;;;;;2.35;0.50;;;;;;;20.27;34.96;100464.75;4995253;28;20053;-76
2022/06/01 14:12:04;;;;;;;3.47;0.60;;;;;;;19.80;35.79;100464.69;4995070;28;20069;-76
2022/06/01 14:15:12;;;;;;;1.52;0.50;;;;;;;20.14;35.69;100465.88;4995115;28;20049;-77
2022/06/01 14:18:22;;;;;;;1.60;0.47;;;;;;;20.77;33.54;100457.31;4995008;28;20402;-75
2022/06/01 14:21:27;;;;;;;8.05;0.55;;;;;;;22.72;30.41;100449.25;4994978;28;20042;-74
2022/06/01 14:31:32;;;;;;;5.85;0.45;;;;;;;22.51;31.59;100441.66;4975290;28;20045;-76
2022/06/01 14:34:36;;;;;;;2.60;0.50;;;;;;;21.36;33.84;100444.50;4975175;28;20124;-76
2022/06/01 14:37:40;;;;;;;2.60;0.50;;;;;;;20.20;35.54;100452.03;4975114;28;20046;-76
2022/06/01 14:40:45;;;;;;;4.07;0.68;;;;;;;21.35;33.93;100448.97;4970713;28;20039;-76
2022/06/01 14:43:49;;;;;;;1.85;0.20;;;;;;;20.71;35.59;100454.38;4975265;28;20061;-76
2022/06/01 14:46:54;;;;;;;1.40;0.40;;;;;;;20.39;35.04;100455.63;4963414;28;20045;-76
2022/06/01 14:49:58;;;;;;;2.30;0.45;;;;;;;20.10;35.67;100456.53;4955392;29;20188;-77
2022/06/01 14:53:12;;;;;;;1.33;0.40;;;;;;;19.42;36.69;100466.31;4967475;28;20081;-76
2022/06/01 14:56:16;;;;;;;4.25;0.70;;;;;;;22.48;32.02;100455.31;4960441;28;20045;-77
2022/06/01 14:59:20;;;;;;;2.22;0.40;;;;;;;25.09;27.37;100448.25;4969979;28;20046;-76
2022/06/01 15:02:41;;;;;;;2.13;0.40;;;;;;;22.20;31.48;100453.81;4968831;28;20164;-76
2022/06/01 15:05:45;;;;;;;5.75;0.50;;;;;;;23.58;29.45;100456.16;4973472;28;20489;-77
2022/06/01 15:08:50;;;;;;;1.50;0.30;;;;;;;20.75;33.34;100461.91;4975004;28;20045;-76
2022/06/01 15:11:54;;;;;;;3.17;0.45;;;;;;;20.82;33.24;100467.47;4976808;28;20188;-77
2022/06/01 15:14:57;;;;;;;2.30;0.60;;;;;;;24.22;28.46;100453.63;4973029;28;20121;-76
2022/06/01 15:18:02;;;;;;;4.18;0.70;;;;;;;22.69;31.34;100457.56;4960128;28;20046;-76
2022/06/01 15:21:06;;;;;;;2.92;0.52;;;;;;;23.41;30.19;100457.94;4972021;28;20041;-76